Terminal Aerodrome Forecast
Issued by NWS

Home | Current Version | Previous Version | Text Only | Print | Product List | Glossary On
Versions: 1 2 3 4 5 6 7 8 9 10 11 12 13 14 15 16
097
FTUS43 KDVN 201730
TAFCID
TAF
KCID 201730Z 2018/2118 24006KT P6SM SCT100 SCT250
     FM202100 31007KT P6SM SCT050 BKN250
     FM210100 06008KT P6SM BKN120 PROB30 2103/2106 4SM TSRA BKN040CB
     FM210900 12004KT 4SM BR BKN060
     FM211500 15007KT 6SM HZ BKN080=

USA.gov is the U.S. government's official web portal to all federal, state and local government web resources and services.